Portada
METAR-TAF:

METAR-TAF

Aeroports :

Milton, Massachusetts, Estats Units d'Amèrica

latitud: 42-12-44N, longitud: 071-06-53W, altitud: 192 m

Observació

L'informe es va fer fa 47 minuts, a les 17:51 UTC
Vent 5 kt amb direcció variable
Temperatura 26°C
Humitat 54%
Pressió 1022 hPa

METAR: KMQE 261751Z AUTO VRB05KT 26/16 A3018 RMK AO1 SLP229 T02560161 10256 20161 58009

Hora: 14:38 (18:38 UTC)


TAF: manca

Observacions i pronòstics meteorològics de més de 4000 aeroports (METAR i TAF).

Les estacions disponibles són els punts grocs i vermells al mapa.

Posi el ratolí al punt desitjat per veure el nom de l'estació.

Feu clic per veure les observacions i els pronòstics meteorològics.

Per canviar el mapa: feu clic els botons verds amb una creu de color negre per apropar; al botó verd amb un guió per allunyar la imatge; o en les fletxes verdes per a mapes adjacents.


METAR-TAF: